sensor_id;sensor_type;location;lat;lon;timestamp;temperature;humidity
20885;DHT22;10602;48.000;9.654;2023-05-14T00:01:56;10.50;99.90
20885;DHT22;10602;48.000;9.654;2023-05-14T00:04:24;10.40;99.90
20885;DHT22;10602;48.000;9.654;2023-05-14T00:06:51;10.40;99.90
20885;DHT22;10602;48.000;9.654;2023-05-14T00:09:19;10.40;99.90
20885;DHT22;10602;48.000;9.654;2023-05-14T00:11:46;10.40;99.90
20885;DHT22;10602;48.000;9.654;2023-05-14T00:14:14;10.40;99.90
20885;DHT22;10602;48.000;9.654;2023-05-14T00:16:41;10.40;99.90
20885;DHT22;10602;48.000;9.654;2023-05-14T00:19:09;10.40;99.90
20885;DHT22;10602;48.000;9.654;2023-05-14T00:21:36;10.40;99.90
20885;DHT22;10602;48.000;9.654;2023-05-14T00:24:04;10.30;99.90
20885;DHT22;10602;48.000;9.654;2023-05-14T00:26:32;10.40;99.90
20885;DHT22;10602;48.000;9.654;2023-05-14T00:28:59;10.40;99.90
20885;DHT22;10602;48.000;9.654;2023-05-14T00:31:27;10.40;99.90
20885;DHT22;10602;48.000;9.654;2023-05-14T00:33:54;10.50;99.90
20885;DHT22;10602;48.000;9.654;2023-05-14T00:36:22;10.50;99.90
20885;DHT22;10602;48.000;9.654;2023-05-14T00:38:49;10.50;99.90
20885;DHT22;10602;48.000;9.654;2023-05-14T00:41:17;10.50;99.90
20885;DHT22;10602;48.000;9.654;2023-05-14T00:43:44;10.50;99.90
20885;DHT22;10602;48.000;9.654;2023-05-14T00:46:12;10.50;99.90
20885;DHT22;10602;48.000;9.654;2023-05-14T00:48:40;10.40;99.90
20885;DHT22;10602;48.000;9.654;2023-05-14T00:51:08;10.50;99.90
20885;DHT22;10602;48.000;9.654;2023-05-14T00:53:36;10.50;99.90
20885;DHT22;10602;48.000;9.654;2023-05-14T00:56:04;10.50;99.90
20885;DHT22;10602;48.000;9.654;2023-05-14T00:58:32;10.40;99.90
20885;DHT22;10602;48.000;9.654;2023-05-14T01:00:59;10.40;99.90
20885;DHT22;10602;48.000;9.654;2023-05-14T01:03:28;10.40;99.90
20885;DHT22;10602;48.000;9.654;2023-05-14T01:12:05;10.40;99.90
20885;DHT22;10602;48.000;9.654;2023-05-14T01:17:09;10.40;99.90
20885;DHT22;10602;48.000;9.654;2023-05-14T01:19:40;10.50;99.90
20885;DHT22;10602;48.000;9.654;2023-05-14T01:22:08;10.50;99.90
20885;DHT22;10602;48.000;9.654;2023-05-14T01:24:36;10.50;99.90
20885;DHT22;10602;48.000;9.654;2023-05-14T01:27:06;10.50;99.90
20885;DHT22;10602;48.000;9.654;2023-05-14T01:29:36;10.50;99.90
20885;DHT22;10602;48.000;9.654;2023-05-14T01:32:06;10.50;99.90
20885;DHT22;10602;48.000;9.654;2023-05-14T01:34:35;10.50;99.90
20885;DHT22;10602;48.000;9.654;2023-05-14T01:37:04;10.50;99.90
20885;DHT22;10602;48.000;9.654;2023-05-14T01:39:34;10.50;99.90
20885;DHT22;10602;48.000;9.654;2023-05-14T01:42:04;10.50;99.90
20885;DHT22;10602;48.000;9.654;2023-05-14T01:44:32;10.50;99.90
20885;DHT22;10602;48.000;9.654;2023-05-14T01:46:59;10.50;99.90
20885;DHT22;10602;48.000;9.654;2023-05-14T01:49:27;10.50;99.90
20885;DHT22;10602;48.000;9.654;2023-05-14T01:51:54;10.50;99.90
20885;DHT22;10602;48.000;9.654;2023-05-14T01:54:22;10.50;99.90
20885;DHT22;10602;48.000;9.654;2023-05-14T01:56:50;10.50;99.90
20885;DHT22;10602;48.000;9.654;2023-05-14T01:59:18;10.50;99.90
20885;DHT22;10602;48.000;9.654;2023-05-14T02:01:50;10.50;99.90
20885;DHT22;10602;48.000;9.654;2023-05-14T02:04:15;10.40;99.90
20885;DHT22;10602;48.000;9.654;2023-05-14T02:06:42;10.50;99.90
20885;DHT22;10602;48.000;9.654;2023-05-14T02:09:10;10.50;99.90
20885;DHT22;10602;48.000;9.654;2023-05-14T02:11:37;10.50;99.90
20885;DHT22;10602;48.000;9.654;2023-05-14T02:14:05;10.50;99.90
20885;DHT22;10602;48.000;9.654;2023-05-14T02:16:32;10.60;99.90
20885;DHT22;10602;48.000;9.654;2023-05-14T02:19:00;10.50;99.90
20885;DHT22;10602;48.000;9.654;2023-05-14T02:21:27;10.50;99.90
20885;DHT22;10602;48.000;9.654;2023-05-14T02:23:54;10.40;99.90
20885;DHT22;10602;48.000;9.654;2023-05-14T02:26:22;10.40;99.90
20885;DHT22;10602;48.000;9.654;2023-05-14T02:28:49;10.40;99.90
20885;DHT22;10602;48.000;9.654;2023-05-14T02:31:17;10.40;99.90
20885;DHT22;10602;48.000;9.654;2023-05-14T02:33:45;10.40;99.90
20885;DHT22;10602;48.000;9.654;2023-05-14T02:36:12;10.40;99.90
20885;DHT22;10602;48.000;9.654;2023-05-14T02:38:39;10.40;99.90
20885;DHT22;10602;48.000;9.654;2023-05-14T02:41:07;10.40;99.90
20885;DHT22;10602;48.000;9.654;2023-05-14T02:43:35;10.40;99.90
20885;DHT22;10602;48.000;9.654;2023-05-14T02:46:02;10.40;99.90
20885;DHT22;10602;48.000;9.654;2023-05-14T02:48:30;10.40;99.90
20885;DHT22;10602;48.000;9.654;2023-05-14T02:50:57;10.40;99.90
20885;DHT22;10602;48.000;9.654;2023-05-14T02:53:25;10.40;99.90
20885;DHT22;10602;48.000;9.654;2023-05-14T02:55:52;10.40;99.90
20885;DHT22;10602;48.000;9.654;2023-05-14T02:58:20;10.40;99.90
20885;DHT22;10602;48.000;9.654;2023-05-14T03:00:47;10.40;99.90
20885;DHT22;10602;48.000;9.654;2023-05-14T03:03:15;10.40;99.90
20885;DHT22;10602;48.000;9.654;2023-05-14T03:05:42;10.40;99.90
20885;DHT22;10602;48.000;9.654;2023-05-14T03:08:10;10.40;99.90
20885;DHT22;10602;48.000;9.654;2023-05-14T03:10:37;10.40;99.90
20885;DHT22;10602;48.000;9.654;2023-05-14T03:13:04;10.40;99.90
20885;DHT22;10602;48.000;9.654;2023-05-14T03:15:32;10.40;99.90
20885;DHT22;10602;48.000;9.654;2023-05-14T03:17:59;10.40;99.90
20885;DHT22;10602;48.000;9.654;2023-05-14T03:20:27;10.40;99.90
20885;DHT22;10602;48.000;9.654;2023-05-14T03:22:55;10.30;99.90
20885;DHT22;10602;48.000;9.654;2023-05-14T03:25:22;10.30;99.90
20885;DHT22;10602;48.000;9.654;2023-05-14T03:27:50;10.30;99.90
20885;DHT22;10602;48.000;9.654;2023-05-14T03:30:17;10.40;99.90
20885;DHT22;10602;48.000;9.654;2023-05-14T03:32:45;10.40;99.90
20885;DHT22;10602;48.000;9.654;2023-05-14T03:35:12;10.40;99.90
20885;DHT22;10602;48.000;9.654;2023-05-14T03:37:40;10.40;99.90
20885;DHT22;10602;48.000;9.654;2023-05-14T03:40:08;10.40;99.90
20885;DHT22;10602;48.000;9.654;2023-05-14T03:42:35;10.40;99.90
20885;DHT22;10602;48.000;9.654;2023-05-14T03:45:03;10.40;99.90
20885;DHT22;10602;48.000;9.654;2023-05-14T03:47:30;10.40;99.90
20885;DHT22;10602;48.000;9.654;2023-05-14T03:49:58;10.30;99.90
20885;DHT22;10602;48.000;9.654;2023-05-14T03:52:25;10.40;99.90
20885;DHT22;10602;48.000;9.654;2023-05-14T03:54:53;10.40;99.90
20885;DHT22;10602;48.000;9.654;2023-05-14T03:57:21;10.40;99.90
20885;DHT22;10602;48.000;9.654;2023-05-14T03:59:48;10.30;99.90
20885;DHT22;10602;48.000;9.654;2023-05-14T04:02:16;10.40;99.90
20885;DHT22;10602;48.000;9.654;2023-05-14T04:04:43;10.40;99.90
20885;DHT22;10602;48.000;9.654;2023-05-14T04:07:11;10.40;99.90
20885;DHT22;10602;48.000;9.654;2023-05-14T04:09:38;10.40;99.90
20885;DHT22;10602;48.000;9.654;2023-05-14T04:12:06;10.40;99.90
20885;DHT22;10602;48.000;9.654;2023-05-14T04:14:34;10.40;99.90
20885;DHT22;10602;48.000;9.654;2023-05-14T04:17:01;10.40;99.90
20885;DHT22;10602;48.000;9.654;2023-05-14T04:19:29;10.50;99.90
20885;DHT22;10602;48.000;9.654;2023-05-14T04:21:56;10.50;99.90
20885;DHT22;10602;48.000;9.654;2023-05-14T04:24:24;10.50;99.90
20885;DHT22;10602;48.000;9.654;2023-05-14T04:26:51;10.50;99.90
20885;DHT22;10602;48.000;9.654;2023-05-14T04:29:19;10.50;99.90
20885;DHT22;10602;48.000;9.654;2023-05-14T04:31:48;10.50;99.90
20885;DHT22;10602;48.000;9.654;2023-05-14T04:34:15;10.40;99.90
20885;DHT22;10602;48.000;9.654;2023-05-14T04:36:43;10.40;99.90
20885;DHT22;10602;48.000;9.654;2023-05-14T04:39:10;10.40;99.90
20885;DHT22;10602;48.000;9.654;2023-05-14T04:41:38;10.40;99.90
20885;DHT22;10602;48.000;9.654;2023-05-14T04:44:06;10.40;99.90
20885;DHT22;10602;48.000;9.654;2023-05-14T04:46:33;10.40;99.90
20885;DHT22;10602;48.000;9.654;2023-05-14T04:49:01;10.40;99.90
20885;DHT22;10602;48.000;9.654;2023-05-14T04:51:28;10.40;99.90
20885;DHT22;10602;48.000;9.654;2023-05-14T04:53:57;10.40;99.90
20885;DHT22;10602;48.000;9.654;2023-05-14T04:56:24;10.40;99.90
20885;DHT22;10602;48.000;9.654;2023-05-14T04:58:52;10.40;99.90
20885;DHT22;10602;48.000;9.654;2023-05-14T05:01:19;10.40;99.90
20885;DHT22;10602;48.000;9.654;2023-05-14T05:03:47;10.40;99.90
20885;DHT22;10602;48.000;9.654;2023-05-14T05:06:15;10.40;99.90
20885;DHT22;10602;48.000;9.654;2023-05-14T05:08:42;10.40;99.90
20885;DHT22;10602;48.000;9.654;2023-05-14T05:11:10;10.40;99.90
20885;DHT22;10602;48.000;9.654;2023-05-14T05:13:37;10.50;99.90
20885;DHT22;10602;48.000;9.654;2023-05-14T05:16:05;10.50;99.90
20885;DHT22;10602;48.000;9.654;2023-05-14T05:18:32;10.50;99.90
20885;DHT22;10602;48.000;9.654;2023-05-14T05:21:00;10.50;99.90
20885;DHT22;10602;48.000;9.654;2023-05-14T05:23:27;10.60;99.90
20885;DHT22;10602;48.000;9.654;2023-05-14T05:25:55;10.60;99.90
20885;DHT22;10602;48.000;9.654;2023-05-14T05:28:22;10.60;99.90
20885;DHT22;10602;48.000;9.654;2023-05-14T05:30:50;10.60;99.90
20885;DHT22;10602;48.000;9.654;2023-05-14T05:33:18;10.60;99.90
20885;DHT22;10602;48.000;9.654;2023-05-14T05:35:45;10.60;99.90
20885;DHT22;10602;48.000;9.654;2023-05-14T05:38:14;10.60;99.90
20885;DHT22;10602;48.000;9.654;2023-05-14T05:40:43;10.50;99.90
20885;DHT22;10602;48.000;9.654;2023-05-14T05:43:11;10.60;99.90
20885;DHT22;10602;48.000;9.654;2023-05-14T05:45:39;10.60;99.90
20885;DHT22;10602;48.000;9.654;2023-05-14T05:48:07;10.60;99.90
20885;DHT22;10602;48.000;9.654;2023-05-14T05:50:34;10.60;99.90
20885;DHT22;10602;48.000;9.654;2023-05-14T05:53:02;10.60;99.90
20885;DHT22;10602;48.000;9.654;2023-05-14T05:55:29;10.60;99.90
20885;DHT22;10602;48.000;9.654;2023-05-14T05:57:57;10.60;99.90
20885;DHT22;10602;48.000;9.654;2023-05-14T06:00:24;10.70;99.90
20885;DHT22;10602;48.000;9.654;2023-05-14T06:02:52;10.60;99.90
20885;DHT22;10602;48.000;9.654;2023-05-14T06:05:19;10.60;99.90
20885;DHT22;10602;48.000;9.654;2023-05-14T06:07:47;10.60;99.90
20885;DHT22;10602;48.000;9.654;2023-05-14T06:10:14;10.70;99.90
20885;DHT22;10602;48.000;9.654;2023-05-14T06:12:42;10.70;99.90
20885;DHT22;10602;48.000;9.654;2023-05-14T06:15:10;10.80;99.90
20885;DHT22;10602;48.000;9.654;2023-05-14T06:17:38;10.80;99.90
20885;DHT22;10602;48.000;9.654;2023-05-14T06:20:06;10.90;99.90
20885;DHT22;10602;48.000;9.654;2023-05-14T06:22:34;10.90;99.90
20885;DHT22;10602;48.000;9.654;2023-05-14T06:25:01;10.90;99.90
20885;DHT22;10602;48.000;9.654;2023-05-14T06:27:29;11.00;99.90
20885;DHT22;10602;48.000;9.654;2023-05-14T06:29:57;11.00;99.90
20885;DHT22;10602;48.000;9.654;2023-05-14T06:32:24;11.00;99.90
20885;DHT22;10602;48.000;9.654;2023-05-14T06:34:52;11.10;99.90
20885;DHT22;10602;48.000;9.654;2023-05-14T06:37:19;11.20;99.90
20885;DHT22;10602;48.000;9.654;2023-05-14T06:39:47;11.30;99.90
20885;DHT22;10602;48.000;9.654;2023-05-14T06:42:16;11.20;99.90
20885;DHT22;10602;48.000;9.654;2023-05-14T06:44:44;11.20;99.90
20885;DHT22;10602;48.000;9.654;2023-05-14T06:47:12;11.20;99.90
20885;DHT22;10602;48.000;9.654;2023-05-14T06:49:39;11.20;99.90
20885;DHT22;10602;48.000;9.654;2023-05-14T06:52:07;11.30;99.90
20885;DHT22;10602;48.000;9.654;2023-05-14T06:54:34;11.30;99.90
20885;DHT22;10602;48.000;9.654;2023-05-14T06:57:02;11.40;99.90
20885;DHT22;10602;48.000;9.654;2023-05-14T06:59:29;11.30;99.90
20885;DHT22;10602;48.000;9.654;2023-05-14T07:01:57;11.40;99.90
20885;DHT22;10602;48.000;9.654;2023-05-14T07:04:25;11.40;99.90
20885;DHT22;10602;48.000;9.654;2023-05-14T07:06:52;11.50;99.90
20885;DHT22;10602;48.000;9.654;2023-05-14T07:09:20;11.50;99.90
20885;DHT22;10602;48.000;9.654;2023-05-14T07:11:47;11.60;99.90
20885;DHT22;10602;48.000;9.654;2023-05-14T07:14:15;11.60;99.90
20885;DHT22;10602;48.000;9.654;2023-05-14T07:16:42;11.60;99.90
20885;DHT22;10602;48.000;9.654;2023-05-14T07:19:12;11.70;99.90
20885;DHT22;10602;48.000;9.654;2023-05-14T07:21:39;11.70;99.90
20885;DHT22;10602;48.000;9.654;2023-05-14T07:24:07;11.70;99.90
20885;DHT22;10602;48.000;9.654;2023-05-14T07:26:34;11.80;99.90
20885;DHT22;10602;48.000;9.654;2023-05-14T07:29:02;11.90;99.90
20885;DHT22;10602;48.000;9.654;2023-05-14T07:31:29;11.90;99.90
20885;DHT22;10602;48.000;9.654;2023-05-14T07:33:57;12.00;99.90
20885;DHT22;10602;48.000;9.654;2023-05-14T07:36:25;12.00;99.90
20885;DHT22;10602;48.000;9.654;2023-05-14T07:38:52;12.00;99.90
20885;DHT22;10602;48.000;9.654;2023-05-14T07:41:20;12.00;99.90
20885;DHT22;10602;48.000;9.654;2023-05-14T07:43:47;12.10;99.90
20885;DHT22;10602;48.000;9.654;2023-05-14T07:46:15;12.20;99.90
20885;DHT22;10602;48.000;9.654;2023-05-14T07:48:42;12.30;99.90
20885;DHT22;10602;48.000;9.654;2023-05-14T07:51:10;12.50;99.90
20885;DHT22;10602;48.000;9.654;2023-05-14T07:53:37;12.70;90.60
20885;DHT22;10602;48.000;9.654;2023-05-14T07:56:05;12.80;69.60
20885;DHT22;10602;48.000;9.654;2023-05-14T07:58:33;12.80;59.40
20885;DHT22;10602;48.000;9.654;2023-05-14T08:01:01;12.90;44.80
20885;DHT22;10602;48.000;9.654;2023-05-14T08:03:30;12.90;37.80
20885;DHT22;10602;48.000;9.654;2023-05-14T08:05:58;12.90;39.50
20885;DHT22;10602;48.000;9.654;2023-05-14T08:08:25;12.90;31.00
20885;DHT22;10602;48.000;9.654;2023-05-14T08:10:53;12.90;33.90
20885;DHT22;10602;48.000;9.654;2023-05-14T08:13:21;12.70;28.50
20885;DHT22;10602;48.000;9.654;2023-05-14T08:15:48;12.60;26.50
20885;DHT22;10602;48.000;9.654;2023-05-14T08:18:16;12.50;42.50
20885;DHT22;10602;48.000;9.654;2023-05-14T08:20:44;12.20;39.90
20885;DHT22;10602;48.000;9.654;2023-05-14T08:23:12;12.10;61.50
20885;DHT22;10602;48.000;9.654;2023-05-14T08:25:39;12.00;70.50
20885;DHT22;10602;48.000;9.654;2023-05-14T08:28:07;12.00;78.80
20885;DHT22;10602;48.000;9.654;2023-05-14T08:30:34;11.80;75.20
20885;DHT22;10602;48.000;9.654;2023-05-14T08:33:02;11.70;88.40
20885;DHT22;10602;48.000;9.654;2023-05-14T08:35:30;11.70;92.20
20885;DHT22;10602;48.000;9.654;2023-05-14T08:37:57;11.70;96.50
20885;DHT22;10602;48.000;9.654;2023-05-14T08:40:25;11.70;97.60
20885;DHT22;10602;48.000;9.654;2023-05-14T08:42:53;11.70;99.90
20885;DHT22;10602;48.000;9.654;2023-05-14T08:45:30;11.70;92.30
20885;DHT22;10602;48.000;9.654;2023-05-14T08:48:00;11.60;98.30
20885;DHT22;10602;48.000;9.654;2023-05-14T08:50:31;11.80;99.90
20885;DHT22;10602;48.000;9.654;2023-05-14T08:52:58;12.00;90.00
20885;DHT22;10602;48.000;9.654;2023-05-14T08:55:26;12.10;83.40
20885;DHT22;10602;48.000;9.654;2023-05-14T08:57:54;12.20;67.40
20885;DHT22;10602;48.000;9.654;2023-05-14T09:00:22;12.10;51.20
20885;DHT22;10602;48.000;9.654;2023-05-14T09:02:50;12.30;67.30
20885;DHT22;10602;48.000;9.654;2023-05-14T09:05:18;12.40;34.40
20885;DHT22;10602;48.000;9.654;2023-05-14T09:07:47;12.40;29.60
20885;DHT22;10602;48.000;9.654;2023-05-14T09:10:15;12.40;24.40
20885;DHT22;10602;48.000;9.654;2023-05-14T09:12:43;12.30;32.00
20885;DHT22;10602;48.000;9.654;2023-05-14T09:15:10;12.30;30.10
20885;DHT22;10602;48.000;9.654;2023-05-14T09:17:40;12.30;37.50
20885;DHT22;10602;48.000;9.654;2023-05-14T09:20:08;12.30;27.20
20885;DHT22;10602;48.000;9.654;2023-05-14T09:22:38;12.50;40.20
20885;DHT22;10602;48.000;9.654;2023-05-14T09:25:07;12.60;6.80
20885;DHT22;10602;48.000;9.654;2023-05-14T09:27:37;12.70;11.40
20885;DHT22;10602;48.000;9.654;2023-05-14T09:30:12;12.80;1.00
20885;DHT22;10602;48.000;9.654;2023-05-14T09:32:44;13.00;1.00
20885;DHT22;10602;48.000;9.654;2023-05-14T09:35:22;13.10;1.00
20885;DHT22;10602;48.000;9.654;2023-05-14T09:37:52;13.20;1.00
20885;DHT22;10602;48.000;9.654;2023-05-14T09:40:23;13.20;1.00
20885;DHT22;10602;48.000;9.654;2023-05-14T09:42:53;13.40;1.00
20885;DHT22;10602;48.000;9.654;2023-05-14T09:45:22;13.50;1.00
20885;DHT22;10602;48.000;9.654;2023-05-14T09:47:50;13.70;1.00
20885;DHT22;10602;48.000;9.654;2023-05-14T09:50:19;13.70;1.00
20885;DHT22;10602;48.000;9.654;2023-05-14T09:52:47;13.80;1.00
20885;DHT22;10602;48.000;9.654;2023-05-14T09:55:15;13.90;1.00
20885;DHT22;10602;48.000;9.654;2023-05-14T09:57:42;13.70;1.00
20885;DHT22;10602;48.000;9.654;2023-05-14T10:00:10;13.50;1.00
20885;DHT22;10602;48.000;9.654;2023-05-14T10:02:41;13.30;1.00
20885;DHT22;10602;48.000;9.654;2023-05-14T10:05:10;13.20;1.00
20885;DHT22;10602;48.000;9.654;2023-05-14T10:07:48;13.10;1.00
20885;DHT22;10602;48.000;9.654;2023-05-14T10:10:19;13.20;1.00
20885;DHT22;10602;48.000;9.654;2023-05-14T10:13:00;13.10;1.00
20885;DHT22;10602;48.000;9.654;2023-05-14T10:15:38;13.00;1.00
20885;DHT22;10602;48.000;9.654;2023-05-14T10:18:06;12.80;1.00
20885;DHT22;10602;48.000;9.654;2023-05-14T10:20:36;12.80;1.00
20885;DHT22;10602;48.000;9.654;2023-05-14T10:23:06;12.40;1.00
20885;DHT22;10602;48.000;9.654;2023-05-14T10:25:34;12.40;1.00
20885;DHT22;10602;48.000;9.654;2023-05-14T10:28:04;12.60;1.00
20885;DHT22;10602;48.000;9.654;2023-05-14T10:30:31;12.70;1.00
20885;DHT22;10602;48.000;9.654;2023-05-14T10:33:06;12.60;1.00
20885;DHT22;10602;48.000;9.654;2023-05-14T10:35:54;12.70;1.00
20885;DHT22;10602;48.000;9.654;2023-05-14T10:38:25;12.80;1.00
20885;DHT22;10602;48.000;9.654;2023-05-14T10:41:14;13.00;1.00
20885;DHT22;10602;48.000;9.654;2023-05-14T10:43:44;13.30;1.00
20885;DHT22;10602;48.000;9.654;2023-05-14T10:46:13;13.60;1.00
20885;DHT22;10602;48.000;9.654;2023-05-14T10:48:42;13.80;1.00
20885;DHT22;10602;48.000;9.654;2023-05-14T10:51:11;14.00;99.90
20885;DHT22;10602;48.000;9.654;2023-05-14T10:53:41;14.10;1.00
20885;DHT22;10602;48.000;9.654;2023-05-14T10:56:11;14.00;99.90
20885;DHT22;10602;48.000;9.654;2023-05-14T10:58:43;14.00;99.90
20885;DHT22;10602;48.000;9.654;2023-05-14T11:01:12;14.00;99.90
20885;DHT22;10602;48.000;9.654;2023-05-14T11:03:45;14.20;99.90
20885;DHT22;10602;48.000;9.654;2023-05-14T11:06:14;14.10;1.00
20885;DHT22;10602;48.000;9.654;2023-05-14T11:08:42;14.10;99.90
20885;DHT22;10602;48.000;9.654;2023-05-14T11:11:10;14.00;99.90
20885;DHT22;10602;48.000;9.654;2023-05-14T11:13:37;14.10;1.00
20885;DHT22;10602;48.000;9.654;2023-05-14T11:16:05;14.40;99.90
20885;DHT22;10602;48.000;9.654;2023-05-14T11:18:34;14.60;1.00
20885;DHT22;10602;48.000;9.654;2023-05-14T11:21:06;14.60;99.90
20885;DHT22;10602;48.000;9.654;2023-05-14T11:23:33;14.40;99.90
20885;DHT22;10602;48.000;9.654;2023-05-14T11:26:01;14.50;16.80
20885;DHT22;10602;48.000;9.654;2023-05-14T11:28:28;14.70;99.90
20885;DHT22;10602;48.000;9.654;2023-05-14T11:30:56;14.80;99.90
20885;DHT22;10602;48.000;9.654;2023-05-14T11:33:26;14.90;17.70
20885;DHT22;10602;48.000;9.654;2023-05-14T11:35:57;14.80;1.00
20885;DHT22;10602;48.000;9.654;2023-05-14T11:38:24;14.60;1.00
20885;DHT22;10602;48.000;9.654;2023-05-14T11:40:55;14.60;1.00
20885;DHT22;10602;48.000;9.654;2023-05-14T11:43:23;14.50;1.00
20885;DHT22;10602;48.000;9.654;2023-05-14T11:45:53;14.30;99.90
20885;DHT22;10602;48.000;9.654;2023-05-14T11:48:23;14.30;1.00
20885;DHT22;10602;48.000;9.654;2023-05-14T11:50:51;14.20;99.90
20885;DHT22;10602;48.000;9.654;2023-05-14T11:53:24;14.50;99.90
20885;DHT22;10602;48.000;9.654;2023-05-14T11:55:52;14.90;99.90
20885;DHT22;10602;48.000;9.654;2023-05-14T11:58:21;15.30;1.00
20885;DHT22;10602;48.000;9.654;2023-05-14T12:00:53;15.60;99.90
20885;DHT22;10602;48.000;9.654;2023-05-14T12:03:22;15.90;99.90
20885;DHT22;10602;48.000;9.654;2023-05-14T12:05:56;15.80;1.00
20885;DHT22;10602;48.000;9.654;2023-05-14T12:08:29;15.90;1.00
20885;DHT22;10602;48.000;9.654;2023-05-14T12:11:00;16.50;99.90
20885;DHT22;10602;48.000;9.654;2023-05-14T12:13:29;16.60;99.90
20885;DHT22;10602;48.000;9.654;2023-05-14T12:15:58;16.90;99.90
20885;DHT22;10602;48.000;9.654;2023-05-14T12:18:29;16.90;99.90
20885;DHT22;10602;48.000;9.654;2023-05-14T12:21:04;16.40;99.90
20885;DHT22;10602;48.000;9.654;2023-05-14T12:23:33;15.90;1.00
20885;DHT22;10602;48.000;9.654;2023-05-14T12:26:03;15.70;1.00
20885;DHT22;10602;48.000;9.654;2023-05-14T12:28:32;15.50;1.00
20885;DHT22;10602;48.000;9.654;2023-05-14T12:30:59;15.60;44.50
20885;DHT22;10602;48.000;9.654;2023-05-14T12:33:27;15.70;99.90
20885;DHT22;10602;48.000;9.654;2023-05-14T12:35:54;16.10;1.00
20885;DHT22;10602;48.000;9.654;2023-05-14T12:38:27;16.60;1.00
20885;DHT22;10602;48.000;9.654;2023-05-14T12:40:54;17.10;1.00
20885;DHT22;10602;48.000;9.654;2023-05-14T12:43:22;17.40;1.00
20885;DHT22;10602;48.000;9.654;2023-05-14T12:45:49;17.50;1.00
20885;DHT22;10602;48.000;9.654;2023-05-14T12:48:20;17.40;1.00
20885;DHT22;10602;48.000;9.654;2023-05-14T12:50:53;17.10;1.00
20885;DHT22;10602;48.000;9.654;2023-05-14T12:53:24;17.00;99.90
20885;DHT22;10602;48.000;9.654;2023-05-14T12:55:56;16.90;99.90
20885;DHT22;10602;48.000;9.654;2023-05-14T12:58:26;16.60;99.90
20885;DHT22;10602;48.000;9.654;2023-05-14T13:00:57;16.50;99.90
20885;DHT22;10602;48.000;9.654;2023-05-14T13:03:26;16.60;99.90
20885;DHT22;10602;48.000;9.654;2023-05-14T13:05:59;17.00;85.40
20885;DHT22;10602;48.000;9.654;2023-05-14T13:08:32;17.70;99.90
20885;DHT22;10602;48.000;9.654;2023-05-14T13:11:02;18.00;1.00
20885;DHT22;10602;48.000;9.654;2023-05-14T13:13:34;18.20;1.00
20885;DHT22;10602;48.000;9.654;2023-05-14T13:16:03;18.20;1.00
20885;DHT22;10602;48.000;9.654;2023-05-14T13:18:31;18.30;1.00
20885;DHT22;10602;48.000;9.654;2023-05-14T13:21:12;18.30;1.00
20885;DHT22;10602;48.000;9.654;2023-05-14T13:23:49;18.30;1.00
20885;DHT22;10602;48.000;9.654;2023-05-14T13:26:16;18.50;1.00
20885;DHT22;10602;48.000;9.654;2023-05-14T13:28:45;18.90;1.00
20885;DHT22;10602;48.000;9.654;2023-05-14T13:31:13;19.30;1.00
20885;DHT22;10602;48.000;9.654;2023-05-14T13:37:02;19.40;99.90
20885;DHT22;10602;48.000;9.654;2023-05-14T13:39:32;19.60;1.00
20885;DHT22;10602;48.000;9.654;2023-05-14T13:41:59;19.90;99.90
20885;DHT22;10602;48.000;9.654;2023-05-14T13:44:27;20.00;99.90
20885;DHT22;10602;48.000;9.654;2023-05-14T13:46:56;19.70;99.90
20885;DHT22;10602;48.000;9.654;2023-05-14T13:49:24;19.80;99.90
20885;DHT22;10602;48.000;9.654;2023-05-14T13:51:52;19.80;99.90
20885;DHT22;10602;48.000;9.654;2023-05-14T13:54:19;19.90;99.90
20885;DHT22;10602;48.000;9.654;2023-05-14T13:56:47;20.10;99.90
20885;DHT22;10602;48.000;9.654;2023-05-14T13:59:14;19.90;99.90
20885;DHT22;10602;48.000;9.654;2023-05-14T14:01:42;19.70;99.90
20885;DHT22;10602;48.000;9.654;2023-05-14T14:04:09;19.80;99.90
20885;DHT22;10602;48.000;9.654;2023-05-14T14:06:37;19.80;99.90
20885;DHT22;10602;48.000;9.654;2023-05-14T14:09:04;19.50;99.90
20885;DHT22;10602;48.000;9.654;2023-05-14T14:11:32;19.00;99.90
20885;DHT22;10602;48.000;9.654;2023-05-14T14:13:59;18.60;99.90
20885;DHT22;10602;48.000;9.654;2023-05-14T14:16:27;18.40;99.90
20885;DHT22;10602;48.000;9.654;2023-05-14T14:18:54;18.30;99.90
20885;DHT22;10602;48.000;9.654;2023-05-14T14:21:22;18.40;1.00
20885;DHT22;10602;48.000;9.654;2023-05-14T14:23:50;18.40;1.00
20885;DHT22;10602;48.000;9.654;2023-05-14T14:26:19;18.30;1.00
20885;DHT22;10602;48.000;9.654;2023-05-14T14:28:46;18.00;1.00
20885;DHT22;10602;48.000;9.654;2023-05-14T14:31:15;18.20;1.00
20885;DHT22;10602;48.000;9.654;2023-05-14T14:33:43;18.10;1.00
20885;DHT22;10602;48.000;9.654;2023-05-14T14:36:10;18.20;1.00
20885;DHT22;10602;48.000;9.654;2023-05-14T14:38:38;18.40;1.00
20885;DHT22;10602;48.000;9.654;2023-05-14T14:41:05;18.40;1.00
20885;DHT22;10602;48.000;9.654;2023-05-14T14:43:33;18.40;1.00
20885;DHT22;10602;48.000;9.654;2023-05-14T14:46:01;18.20;1.00
20885;DHT22;10602;48.000;9.654;2023-05-14T14:48:31;17.30;1.00
20885;DHT22;10602;48.000;9.654;2023-05-14T14:51:00;16.10;1.00
20885;DHT22;10602;48.000;9.654;2023-05-14T14:53:27;15.00;99.90
20885;DHT22;10602;48.000;9.654;2023-05-14T14:55:56;14.10;99.90
20885;DHT22;10602;48.000;9.654;2023-05-14T14:58:23;13.60;1.00
20885;DHT22;10602;48.000;9.654;2023-05-14T15:00:53;13.30;1.00
20885;DHT22;10602;48.000;9.654;2023-05-14T15:03:21;13.10;1.00
20885;DHT22;10602;48.000;9.654;2023-05-14T15:05:49;12.90;1.00
20885;DHT22;10602;48.000;9.654;2023-05-14T15:08:19;12.90;9.30
20885;DHT22;10602;48.000;9.654;2023-05-14T15:10:49;12.90;18.40
20885;DHT22;10602;48.000;9.654;2023-05-14T15:13:17;12.90;12.70
20885;DHT22;10602;48.000;9.654;2023-05-14T15:15:45;12.90;20.10
20885;DHT22;10602;48.000;9.654;2023-05-14T15:18:12;12.90;35.30
20885;DHT22;10602;48.000;9.654;2023-05-14T15:20:40;12.80;35.60
20885;DHT22;10602;48.000;9.654;2023-05-14T15:23:08;12.70;40.30
20885;DHT22;10602;48.000;9.654;2023-05-14T15:25:36;12.70;50.90
20885;DHT22;10602;48.000;9.654;2023-05-14T15:28:05;12.70;24.50
20885;DHT22;10602;48.000;9.654;2023-05-14T15:30:33;12.70;62.70
20885;DHT22;10602;48.000;9.654;2023-05-14T15:33:00;12.80;58.60
20885;DHT22;10602;48.000;9.654;2023-05-14T15:35:28;12.90;51.90
20885;DHT22;10602;48.000;9.654;2023-05-14T15:37:55;13.00;50.60
20885;DHT22;10602;48.000;9.654;2023-05-14T15:40:23;13.10;51.60
20885;DHT22;10602;48.000;9.654;2023-05-14T15:42:50;13.30;53.50
20885;DHT22;10602;48.000;9.654;2023-05-14T15:45:18;13.40;57.50
20885;DHT22;10602;48.000;9.654;2023-05-14T15:47:46;13.50;70.10
20885;DHT22;10602;48.000;9.654;2023-05-14T15:50:14;13.70;73.20
20885;DHT22;10602;48.000;9.654;2023-05-14T15:52:41;13.70;65.30
20885;DHT22;10602;48.000;9.654;2023-05-14T15:55:09;13.80;90.80